Funchalense 5 — CSKN — position and weather

sailwx.info

Track history (hours):
 
Tides and Currents Weather Stations Pressure Air Temp Water Temp Dewpoint Dewpoint Depression Visibility Wind Speed Wind Dir Waves Ship Positions

Funchalense 5

Last reported at 2015-Mar-01 10:33 UTC. Time now 2015-Mar-04 11:24 UTC.
Position N 37°06' W 011°18'.

Length 127 m; draft 7 m.

Type: Ship. MMSI: 255804250.

Date/timePositionNaut miles runAvg speedWind from/ knotsBaromVisibWave heightAir tempDewpointWater temp
2015-Mar-01 10:33N 37°06' W 011°18'1817.7
2015-Mar-01 09:32N 37°19' W 011°02'1917.5
2015-Mar-01 08:28N 37°32' W 010°45'2117.5
2015-Mar-01 07:17N 37°47' W 010°27'3117.5
2015-Mar-01 05:32N 38°09' W 010°00'1717.2
2015-Mar-01 04:32N 38°20' W 009°44'1817.7
2015-Mar-01 03:33N 38°33' W 009°28'1817.7
2015-Mar-01 02:33N 38°42' W 009°09'3 1.4
2015-Mar-01 00:24N 38°44' W 009°06'0 0.0
2015-Feb-28 23:29N 38°44' W 009°06'0 0.0
2015-Feb-28 21:16N 38°44' W 009°06'0 0.0
2015-Feb-28 20:25N 38°44' W 009°06'0 0.0
2015-Feb-28 16:11N 38°44' W 009°06'0 0.0
2015-Feb-28 15:32N 38°44' W 009°06'0 0.0
2015-Feb-28 12:27N 38°44' W 009°06'0 0.0
2015-Feb-28 11:24N 38°44' W 009°06'0 0.0
2015-Feb-28 10:33N 38°44' W 009°06'0 0.0
2015-Feb-28 08:29N 38°44' W 009°06'0 0.0
2015-Feb-28 07:31N 38°44' W 009°06'0 0.0
2015-Feb-28 06:31N 38°44' W 009°06'0 0.0
2015-Feb-28 05:33N 38°44' W 009°06'0 0.0
2015-Feb-28 04:15N 38°44' W 009°06'0 0.0
2015-Feb-28 03:27N 38°44' W 009°06'0 0.0
2015-Feb-28 01:08N 38°44' W 009°06'0 0.0
2015-Feb-28 00:25N 38°44' W 009°06'0 0.0
2015-Feb-27 23:10N 38°44' W 009°06'0 0.0
2015-Feb-27 22:12N 38°44' W 009°06'0 0.0
2015-Feb-27 21:27N 38°44' W 009°06'0 0.0
2015-Feb-27 20:30N 38°44' W 009°06'0 0.0
2015-Feb-27 18:32N 38°44' W 009°06'0 0.0
2015-Feb-27 17:28N 38°44' W 009°06'0 0.0
2015-Feb-27 16:31N 38°44' W 009°06'0 0.0
2015-Feb-27 15:33N 38°44' W 009°06'0 0.0
2015-Feb-27 14:33N 38°44' W 009°06'0 0.0
2015-Feb-27 13:30N 38°44' W 009°06'0 0.0
2015-Feb-27 11:11N 38°44' W 009°06'0 0.1
2015-Feb-27 10:33N 38°44' W 009°06'1 0.8
2015-Feb-27 09:32N 38°43' W 009°07'0 0.0
2015-Feb-27 08:33N 38°43' W 009°07'0 0.0
2015-Feb-27 07:33N 38°43' W 009°07'0 0.0
2015-Feb-27 06:33N 38°43' W 009°07'0 0.0
2015-Feb-27 05:32N 38°43' W 009°07'0 0.0
2015-Feb-27 04:33N 38°43' W 009°07'0 0.0
2015-Feb-27 03:33N 38°43' W 009°07'0 0.0
2015-Feb-27 02:33N 38°43' W 009°07'0 0.0
2015-Feb-27 01:32N 38°43' W 009°07'0 0.0
2015-Feb-27 00:33N 38°43' W 009°07'0 0.0
2015-Feb-26 23:33N 38°43' W 009°07'0 0.0
2015-Feb-26 22:33N 38°43' W 009°07'0 0.0
2015-Feb-26 21:33N 38°43' W 009°07'0 0.0
2015-Feb-26 20:33N 38°43' W 009°07'0 0.0
2015-Feb-26 19:32N 38°43' W 009°07'0 0.0
2015-Feb-26 18:33N 38°43' W 009°07'0 0.0
2015-Feb-26 17:24N 38°43' W 009°07'0 0.1
2015-Feb-26 16:29N 38°43' W 009°07'0 0.0
2015-Feb-26 15:14N 38°43' W 009°07'0 0.0
2015-Feb-26 14:32N 38°43' W 009°07'0 0.0
2015-Feb-26 13:28N 38°43' W 009°07'0 0.0
2015-Feb-26 12:25N 38°43' W 009°07'0 0.3
2015-Feb-26 11:32N 38°43' W 009°07'9 9.4
2015-Feb-26 10:32N 38°40' W 009°19'1514.0
2015-Feb-26 09:29N 38°29' W 009°31'1414.4
2015-Feb-26 08:32N 38°19' W 009°43'  
2015-Feb-21 23:18N 38°17' W 009°48'1114.2
2015-Feb-21 22:31N 38°25' W 009°38'1614.7
2015-Feb-21 21:25N 38°37' W 009°24'1517.1
2015-Feb-21 20:33N 38°43' W 009°07'1 0.9
2015-Feb-21 19:33N 38°44' W 009°06'0 0.1
2015-Feb-21 18:27N 38°44' W 009°06'0 0.0
2015-Feb-21 16:17N 38°44' W 009°06'0 0.0
2015-Feb-21 15:29N 38°44' W 009°06'0 0.0
2015-Feb-21 14:31N 38°44' W 009°06'0 0.0
2015-Feb-21 13:19N 38°44' W 009°06'0 0.0
2015-Feb-21 11:18N 38°44' W 009°06'0 0.0
2015-Feb-21 10:16N 38°44' W 009°06'0 0.0
2015-Feb-21 09:21N 38°44' W 009°06'0 0.0
2015-Feb-21 08:24N 38°44' W 009°06'0 0.1
2015-Feb-21 07:34N 38°44' W 009°06'1110.2
2015-Feb-21 06:28N 38°39' W 009°19'1514.5
2015-Feb-21 05:26N 38°39' W 009°38'1514.2
2015-Feb-21 04:24N 38°53' W 009°44'1515.8
2015-Feb-21 03:27N 39°08' W 009°44'  
Track history (hours):
 
Tides and Currents Weather Stations Pressure Air Temp Water Temp Dewpoint Dewpoint Depression Visibility Wind Speed Wind Dir Waves Ship Positions

Funchalense 5

Last reported at 2015-Mar-01 10:33 UTC. Time now 2015-Mar-04 11:24 UTC.
Position N 37°06' W 011°18'.

Length 127 m; draft 7 m.

Type: Ship. MMSI: 255804250.

Date/timePositionNaut miles runAvg speedWind from/ knotsBaromVisibWave heightAir tempDewpointWater temp
2015-Mar-01 10:33N 37°06' W 011°18'1817.7
2015-Mar-01 09:32N 37°19' W 011°02'1917.5
2015-Mar-01 08:28N 37°32' W 010°45'2117.5
2015-Mar-01 07:17N 37°47' W 010°27'3117.5
2015-Mar-01 05:32N 38°09' W 010°00'1717.2
2015-Mar-01 04:32N 38°20' W 009°44'1817.7
2015-Mar-01 03:33N 38°33' W 009°28'1817.7
2015-Mar-01 02:33N 38°42' W 009°09'3 1.4
2015-Mar-01 00:24N 38°44' W 009°06'0 0.0
2015-Feb-28 23:29N 38°44' W 009°06'0 0.0
2015-Feb-28 21:16N 38°44' W 009°06'0 0.0
2015-Feb-28 20:25N 38°44' W 009°06'0 0.0
2015-Feb-28 16:11N 38°44' W 009°06'0 0.0
2015-Feb-28 15:32N 38°44' W 009°06'0 0.0
2015-Feb-28 12:27N 38°44' W 009°06'0 0.0
2015-Feb-28 11:24N 38°44' W 009°06'0 0.0
2015-Feb-28 10:33N 38°44' W 009°06'0 0.0
2015-Feb-28 08:29N 38°44' W 009°06'0 0.0
2015-Feb-28 07:31N 38°44' W 009°06'0 0.0
2015-Feb-28 06:31N 38°44' W 009°06'0 0.0
2015-Feb-28 05:33N 38°44' W 009°06'0 0.0
2015-Feb-28 04:15N 38°44' W 009°06'0 0.0
2015-Feb-28 03:27N 38°44' W 009°06'0 0.0
2015-Feb-28 01:08N 38°44' W 009°06'0 0.0
2015-Feb-28 00:25N 38°44' W 009°06'0 0.0
2015-Feb-27 23:10N 38°44' W 009°06'0 0.0
2015-Feb-27 22:12N 38°44' W 009°06'0 0.0
2015-Feb-27 21:27N 38°44' W 009°06'0 0.0
2015-Feb-27 20:30N 38°44' W 009°06'0 0.0
2015-Feb-27 18:32N 38°44' W 009°06'0 0.0
2015-Feb-27 17:28N 38°44' W 009°06'0 0.0
2015-Feb-27 16:31N 38°44' W 009°06'0 0.0
2015-Feb-27 15:33N 38°44' W 009°06'0 0.0
2015-Feb-27 14:33N 38°44' W 009°06'0 0.0
2015-Feb-27 13:30N 38°44' W 009°06'0 0.0
2015-Feb-27 11:11N 38°44' W 009°06'0 0.1
2015-Feb-27 10:33N 38°44' W 009°06'1 0.8
2015-Feb-27 09:32N 38°43' W 009°07'0 0.0
2015-Feb-27 08:33N 38°43' W 009°07'0 0.0
2015-Feb-27 07:33N 38°43' W 009°07'0 0.0
2015-Feb-27 06:33N 38°43' W 009°07'0 0.0
2015-Feb-27 05:32N 38°43' W 009°07'0 0.0
2015-Feb-27 04:33N 38°43' W 009°07'0 0.0
2015-Feb-27 03:33N 38°43' W 009°07'0 0.0
2015-Feb-27 02:33N 38°43' W 009°07'0 0.0
2015-Feb-27 01:32N 38°43' W 009°07'0 0.0
2015-Feb-27 00:33N 38°43' W 009°07'0 0.0
2015-Feb-26 23:33N 38°43' W 009°07'0 0.0
2015-Feb-26 22:33N 38°43' W 009°07'0 0.0
2015-Feb-26 21:33N 38°43' W 009°07'0 0.0
2015-Feb-26 20:33N 38°43' W 009°07'0 0.0
2015-Feb-26 19:32N 38°43' W 009°07'0 0.0
2015-Feb-26 18:33N 38°43' W 009°07'0 0.0
2015-Feb-26 17:24N 38°43' W 009°07'0 0.1
2015-Feb-26 16:29N 38°43' W 009°07'0 0.0
2015-Feb-26 15:14N 38°43' W 009°07'0 0.0
2015-Feb-26 14:32N 38°43' W 009°07'0 0.0
2015-Feb-26 13:28N 38°43' W 009°07'0 0.0
2015-Feb-26 12:25N 38°43' W 009°07'0 0.3
2015-Feb-26 11:32N 38°43' W 009°07'9 9.4
2015-Feb-26 10:32N 38°40' W 009°19'1514.0
2015-Feb-26 09:29N 38°29' W 009°31'1414.4
2015-Feb-26 08:32N 38°19' W 009°43'  
2015-Feb-21 23:18N 38°17' W 009°48'1114.2
2015-Feb-21 22:31N 38°25' W 009°38'1614.7
2015-Feb-21 21:25N 38°37' W 009°24'1517.1
2015-Feb-21 20:33N 38°43' W 009°07'1 0.9
2015-Feb-21 19:33N 38°44' W 009°06'0 0.1
2015-Feb-21 18:27N 38°44' W 009°06'0 0.0
2015-Feb-21 16:17N 38°44' W 009°06'0 0.0
2015-Feb-21 15:29N 38°44' W 009°06'0 0.0
2015-Feb-21 14:31N 38°44' W 009°06'0 0.0
2015-Feb-21 13:19N 38°44' W 009°06'0 0.0
2015-Feb-21 11:18N 38°44' W 009°06'0 0.0
2015-Feb-21 10:16N 38°44' W 009°06'0 0.0
2015-Feb-21 09:21N 38°44' W 009°06'0 0.0
2015-Feb-21 08:24N 38°44' W 009°06'0 0.1
2015-Feb-21 07:34N 38°44' W 009°06'1110.2
2015-Feb-21 06:28N 38°39' W 009°19'1514.5
2015-Feb-21 05:26N 38°39' W 009°38'1514.2
2015-Feb-21 04:24N 38°53' W 009°44'1515.8
2015-Feb-21 03:27N 39°08' W 009°44'  

Dump ship's entire track history